KR-0433 weather

Dynamic Guesthouse Heliports
Busan, Busan Gwang'yeogsi, South Korea

Public forecast

Using degrees Celsius for public forecast. Weather courtesy of forecast.io.

METAR (pilot weather report)

Closest report is Gimhae International Airport, 6.1 nm (11.4 km) WNW. Retrieved 2019/09/17 20:00 UTC (21 minutes ago):

RKPK 172000Z 04004KT CAVOK 17/14 Q1014

TAF (pilot weather forecast)

Closest forecast is Gimhae International Airport, 6.1 nm (11.4 km) WNW. Retrieved 2019/09/17 18:00 UTC (2 hours ago):

TAF RKPK 171700Z 1718/1824 36006KT 9999 FEW030 BKN180 TN17/1720Z TX28/1804Z